Time;durP1;ratioP1;P1;durP2;ratioP2;P2;SDS_P1;SDS_P2;PMS_P1;PMS_P2;Temp;Humidity;BMP_temperature;BMP_pressure;BME280_temperature;BME280_humidity;BME280_pressure;Samples;Min_cycle;Max_cycle;Signal;HPM_P1;HPM_P2
2022/04/12 00:01:37;;;;;;;5.40;2.58;;;5.80;80.80;;;;;;6243904;23;20000;-42
2022/04/12 00:04:04;;;;;;;6.18;2.20;;;5.70;81.10;;;;;;6244192;23;20001;-42
2022/04/12 00:06:31;;;;;;;5.32;2.08;;;5.70;81.30;;;;;;6244087;23;20399;-44
2022/04/12 00:08:58;;;;;;;7.05;2.42;;;5.70;81.60;;;;;;6244325;23;19996;-45
2022/04/12 00:11:26;;;;;;;7.80;2.53;;;5.60;81.70;;;;;;6243641;23;20388;-43
2022/04/12 00:13:53;;;;;;;5.13;2.28;;;5.60;81.80;;;;;;6217707;23;20008;-48
2022/04/12 00:16:21;;;;;;;5.68;2.50;;;5.60;81.80;;;;;;6242294;23;20015;-44
2022/04/12 00:19:03;;;;;;;5.93;2.78;;;5.60;82.00;;;;;;6217598;23;20008;-48
2022/04/12 00:21:34;;;;;;;6.78;2.58;;;5.60;82.10;;;;;;6243700;23;20019;-48
2022/04/12 00:24:06;;;;;;;6.70;2.70;;;5.60;82.10;;;;;;6244126;23;20009;-44
2022/04/12 00:26:34;;;;;;;5.03;2.70;;;5.60;82.10;;;;;;6243897;23;19996;-43
2022/04/12 00:29:03;;;;;;;6.05;2.70;;;5.70;82.20;;;;;;6244334;23;19996;-42
2022/04/12 00:31:31;;;;;;;4.13;2.40;;;5.60;82.10;;;;;;6243720;23;20130;-44
2022/04/12 00:34:00;;;;;;;5.78;2.88;;;5.60;82.10;;;;;;6244243;23;20008;-42
2022/04/12 00:36:28;;;;;;;4.25;2.88;;;5.50;82.10;;;;;;6243822;23;20004;-42
2022/04/12 00:38:54;;;;;;;3.60;2.42;;;5.60;82.00;;;;;;6243625;23;20375;-41
2022/04/12 00:41:21;;;;;;;4.85;2.58;;;5.60;82.00;;;;;;6245186;23;20019;-42
2022/04/12 00:43:48;;;;;;;7.97;4.38;;;5.60;82.00;;;;;;6245524;23;20315;-45
2022/04/12 00:46:15;;;;;;;7.13;2.70;;;5.60;82.10;;;;;;6245431;23;20007;-45
2022/04/12 00:48:42;;;;;;;5.03;2.75;;;5.60;82.30;;;;;;6219293;23;20014;-44
2022/04/12 00:51:09;;;;;;;7.07;3.40;;;5.50;82.50;;;;;;6219731;23;20000;-43
2022/04/12 00:53:36;;;;;;;5.28;3.60;;;5.50;82.40;;;;;;6246023;23;20031;-42
2022/04/12 00:56:08;;;;;;;8.10;3.50;;;5.50;82.50;;;;;;6244582;23;20423;-42
2022/04/12 00:58:35;;;;;;;4.65;3.17;;;5.40;82.60;;;;;;6194680;23;20000;-42
2022/04/12 01:01:02;;;;;;;4.45;2.97;;;5.40;82.70;;;;;;6245149;23;20008;-42
2022/04/12 01:03:29;;;;;;;7.97;3.10;;;5.40;82.70;;;;;;6245464;23;20004;-44
2022/04/12 01:05:57;;;;;;;6.05;3.22;;;5.40;82.90;;;;;;6245524;23;20011;-47
2022/04/12 01:08:24;;;;;;;6.28;3.90;;;5.30;82.90;;;;;;6218889;23;20040;-44
2022/04/12 01:10:52;;;;;;;4.63;3.10;;;5.30;83.00;;;;;;6246011;23;20052;-43
2022/04/12 01:13:19;;;;;;;6.40;3.22;;;5.30;83.20;;;;;;6218652;23;20078;-43
2022/04/12 01:15:51;;;;;;;6.22;3.35;;;5.30;83.10;;;;;;6244229;23;20095;-45
2022/04/12 01:18:16;;;;;;;6.28;3.83;;;5.30;83.00;;;;;;6245272;23;20012;-42
2022/04/12 01:20:43;;;;;;;7.65;4.00;;;5.30;83.00;;;;;;6245489;23;20004;-43
2022/04/12 01:23:22;;;;;;;8.10;3.63;;;5.30;83.00;;;;;;6244477;23;20019;-44
2022/04/12 01:25:49;;;;;;;8.10;4.80;;;5.20;82.90;;;;;;6245356;23;20055;-42
2022/04/12 01:28:16;;;;;;;7.75;3.55;;;5.30;82.40;;;;;;6194121;23;20016;-44
2022/04/12 01:30:42;;;;;;;5.38;3.90;;;5.40;82.10;;;;;;6218889;22;20093;-43
2022/04/12 01:33:08;;;;;;;9.40;4.03;;;5.40;82.00;;;;;;6245676;23;20079;-44
2022/04/12 01:35:35;;;;;;;7.68;4.22;;;5.30;81.90;;;;;;6245615;23;20079;-43
2022/04/12 01:38:02;;;;;;;8.70;4.35;;;5.30;82.00;;;;;;6245525;23;20023;-46
2022/04/12 01:40:28;;;;;;;6.00;3.75;;;5.30;82.10;;;;;;6246582;23;20008;-42
2022/04/12 01:42:55;;;;;;;5.45;3.75;;;5.30;82.30;;;;;;6246465;23;20007;-44
2022/04/12 01:45:24;;;;;;;9.05;4.85;;;5.30;82.30;;;;;;6245059;23;20039;-42
2022/04/12 01:47:53;;;;;;;8.60;4.22;;;5.30;82.50;;;;;;6245252;23;20030;-42
2022/04/12 01:50:20;;;;;;;9.60;4.43;;;5.30;82.30;;;;;;6195227;23;20015;-42
2022/04/12 01:52:48;;;;;;;7.35;4.07;;;5.30;82.40;;;;;;6244849;23;20000;-41
2022/04/12 01:55:16;;;;;;;7.53;4.22;;;5.40;82.50;;;;;;6246582;23;20019;-44
2022/04/12 01:57:44;;;;;;;7.18;4.68;;;5.40;82.60;;;;;;6246176;23;20052;-41
2022/04/12 02:00:10;;;;;;;8.65;4.75;;;5.40;82.70;;;;;;6246577;23;20026;-43
2022/04/12 02:02:37;;;;;;;6.50;4.50;;;5.40;82.90;;;;;;6246471;23;20012;-42
2022/04/12 02:05:06;;;;;;;8.00;4.68;;;5.40;82.70;;;;;;6246676;23;20452;-43
2022/04/12 02:07:34;;;;;;;7.32;4.55;;;5.40;82.70;;;;;;6246294;23;20023;-43
2022/04/12 02:09:59;;;;;;;10.05;5.10;;;5.40;82.70;;;;;;6220091;23;20035;-45
2022/04/12 02:12:26;;;;;;;7.18;4.80;;;5.50;82.80;;;;;;6246284;23;20000;-45
2022/04/12 02:14:54;;;;;;;9.68;5.97;;;5.40;82.80;;;;;;6245991;23;20078;-45
2022/04/12 02:17:20;;;;;;;8.50;5.00;;;5.50;82.40;;;;;;6244809;23;20027;-44
2022/04/12 02:19:48;;;;;;;8.85;5.00;;;5.50;81.90;;;;;;6219049;23;20027;-43
2022/04/12 02:22:15;;;;;;;9.82;5.25;;;5.60;81.60;;;;;;6245253;23;20656;-43
2022/04/12 02:24:42;;;;;;;7.55;4.53;;;5.60;81.60;;;;;;6246280;23;20012;-43
2022/04/12 02:27:09;;;;;;;11.80;5.13;;;5.60;81.50;;;;;;6219321;23;20011;-44
2022/04/12 02:29:36;;;;;;;12.48;5.32;;;5.60;81.40;;;;;;6246003;23;20000;-42
2022/04/12 02:32:03;;;;;;;7.70;4.70;;;5.60;81.70;;;;;;6215652;23;20017;-42
2022/04/12 02:34:31;;;;;;;8.75;5.28;;;5.60;81.70;;;;;;6215352;23;20001;-42
2022/04/12 02:36:58;;;;;;;10.77;5.70;;;5.60;81.70;;;;;;6215475;23;20005;-42
2022/04/12 02:39:24;;;;;;;9.13;5.55;;;5.60;81.50;;;;;;6214992;23;20083;-42
2022/04/12 02:41:52;;;;;;;7.63;5.18;;;5.60;81.70;;;;;;6213730;23;20338;-43
2022/04/12 02:44:18;;;;;;;9.23;5.15;;;5.50;81.90;;;;;;6215667;23;20288;-41
2022/04/12 02:46:48;;;;;;;7.70;4.85;;;5.60;82.10;;;;;;6215339;23;20004;-43
2022/04/12 02:49:15;;;;;;;6.18;4.78;;;5.50;82.00;;;;;;6215595;23;20008;-42
2022/04/12 02:51:41;;;;;;;8.60;5.03;;;5.50;82.10;;;;;;6214102;23;20423;-42
2022/04/12 02:54:10;;;;;;;8.50;5.82;;;5.50;82.20;;;;;;6215785;23;20054;-41
2022/04/12 02:56:36;;;;;;;10.85;4.88;;;5.50;82.60;;;;;;6215498;23;20357;-43
2022/04/12 02:59:02;;;;;;;7.93;5.35;;;5.50;82.60;;;;;;6189337;23;20009;-44
2022/04/12 03:01:29;;;;;;;11.43;5.10;;;5.40;82.60;;;;;;6215322;23;20319;-42
2022/04/12 03:03:56;;;;;;;9.18;5.18;;;5.40;82.60;;;;;;6215260;23;20004;-43
2022/04/12 03:06:25;;;;;;;11.48;5.85;;;5.40;82.60;;;;;;6214012;23;20079;-43
2022/04/12 03:08:52;;;;;;;10.65;5.72;;;5.40;82.60;;;;;;6215882;23;20035;-44
2022/04/12 03:11:19;;;;;;;8.70;5.25;;;5.50;82.60;;;;;;6215308;23;20009;-42
2022/04/12 03:13:48;;;;;;;8.93;5.72;;;5.40;82.50;;;;;;6164906;23;20019;-42
2022/04/12 03:16:18;;;;;;;11.00;5.53;;;5.50;82.50;;;;;;6215091;23;20008;-45
2022/04/12 03:18:44;;;;;;;;;;;5.50;82.30;;;;;;6215906;23;20574;-44
2022/04/12 03:21:12;;;;;;;7.30;4.82;;;5.50;82.20;;;;;;6214942;23;20280;-42
2022/04/12 03:23:39;;;;;;;11.70;5.88;;;5.50;82.10;;;;;;6215138;23;20032;-44
2022/04/12 03:26:06;;;;;;;8.23;5.45;;;5.50;82.20;;;;;;6215314;23;20004;-42
2022/04/12 03:28:33;;;;;;;10.85;5.55;;;5.50;82.20;;;;;;6215177;23;20777;-44
2022/04/12 03:31:03;;;;;;;8.57;5.40;;;5.50;82.10;;;;;;6231132;23;20036;-42
2022/04/12 03:33:30;;;;;;;8.40;5.07;;;5.40;82.10;;;;;;6245100;23;20015;-42
2022/04/12 03:35:56;;;;;;;8.73;5.43;;;5.40;82.00;;;;;;6245155;23;20336;-46
2022/04/12 03:38:23;;;;;;;7.68;5.05;;;5.40;81.90;;;;;;6244861;23;20011;-45
2022/04/12 03:40:50;;;;;;;11.50;4.82;;;5.40;82.00;;;;;;6218426;23;20019;-43
2022/04/12 03:43:16;;;;;;;8.18;5.05;;;5.40;82.10;;;;;;6218470;23;20012;-44
2022/04/12 03:45:43;;;;;;;12.00;6.50;;;5.40;82.00;;;;;;6244799;23;20004;-45
2022/04/12 03:48:08;;;;;;;8.80;5.25;;;5.40;81.80;;;;;;6219306;23;20083;-41
2022/04/12 03:50:35;;;;;;;7.53;5.38;;;5.40;81.90;;;;;;6245632;23;20008;-45
2022/04/12 03:53:02;;;;;;;11.20;5.72;;;5.30;82.10;;;;;;6245657;23;20000;-42
2022/04/12 03:55:34;;;;;;;9.23;6.05;;;5.30;82.40;;;;;;6269094;22;20012;-43
2022/04/12 03:58:07;;;;;;;9.07;5.82;;;5.20;82.50;;;;;;6245579;23;20008;-43
2022/04/12 04:00:35;;;;;;;8.93;5.68;;;5.20;82.50;;;;;;6245412;23;20315;-42
2022/04/12 04:03:02;;;;;;;8.50;5.45;;;5.20;82.60;;;;;;6218927;23;20012;-43
2022/04/12 04:05:29;;;;;;;10.18;5.55;;;5.20;82.60;;;;;;6245407;23;20000;-43
2022/04/12 04:07:57;;;;;;;11.98;5.70;;;5.20;82.70;;;;;;6245404;23;20299;-43
2022/04/12 04:10:24;;;;;;;8.55;4.85;;;5.20;82.60;;;;;;6245377;23;20007;-42
2022/04/12 04:12:53;;;;;;;9.77;5.05;;;5.20;82.60;;;;;;6244851;23;20011;-43
2022/04/12 04:15:20;;;;;;;9.30;5.63;;;5.20;82.40;;;;;;6247591;23;20384;-45
2022/04/12 04:17:47;;;;;;;10.98;5.75;;;5.20;82.20;;;;;;6247059;23;20016;-45
2022/04/12 04:20:16;;;;;;;5.35;4.78;;;5.30;82.00;;;;;;6220784;23;20103;-43
2022/04/12 04:22:43;;;;;;;13.50;6.10;;;5.30;81.90;;;;;;6247594;23;20004;-45
2022/04/12 04:25:13;;;;;;;7.90;5.40;;;5.20;81.60;;;;;;6246602;23;20101;-44
2022/04/12 04:27:44;;;;;;;10.43;5.68;;;5.30;81.60;;;;;;6247712;23;20074;-44
2022/04/12 04:30:10;;;;;;;8.55;5.78;;;5.30;81.80;;;;;;6220538;23;20354;-45
2022/04/12 04:32:38;;;;;;;6.80;5.07;;;5.30;81.80;;;;;;6220676;23;20008;-43
2022/04/12 04:35:05;;;;;;;10.80;5.78;;;5.30;81.80;;;;;;6194873;23;20403;-44
2022/04/12 04:37:40;;;;;;;9.35;5.95;;;5.30;82.00;;;;;;6247095;23;20362;-45
2022/04/12 04:40:06;;;;;;;8.90;5.65;;;5.30;81.90;;;;;;6221340;23;20392;-42
2022/04/12 04:42:35;;;;;;;7.65;5.32;;;5.30;82.00;;;;;;6246864;23;20035;-45
2022/04/12 04:45:02;;;;;;;10.63;5.20;;;5.30;81.60;;;;;;6220628;23;20089;-44
2022/04/12 04:47:28;;;;;;;13.27;7.80;;;5.40;81.40;;;;;;6220384;23;20042;-44
2022/04/12 04:49:53;;;;;;;11.93;6.63;;;5.30;81.60;;;;;;6220457;23;20008;-45
2022/04/12 04:52:23;;;;;;;9.48;5.55;;;5.40;81.40;;;;;;6247265;23;20003;-43
2022/04/12 04:54:49;;;;;;;8.52;6.05;;;5.40;81.30;;;;;;6246845;23;20004;-41
2022/04/12 04:57:16;;;;;;;12.10;6.88;;;5.40;81.30;;;;;;6246768;23;20027;-43
2022/04/12 04:59:45;;;;;;;10.43;5.93;;;5.40;81.20;;;;;;6246169;23;20011;-42
2022/04/12 05:02:12;;;;;;;8.82;5.93;;;5.40;81.20;;;;;;6246871;23;20057;-43
2022/04/12 05:04:39;;;;;;;9.55;5.30;;;5.40;81.20;;;;;;6246579;23;20061;-43
2022/04/12 05:07:05;;;;;;;8.68;6.40;;;5.40;81.40;;;;;;6246684;23;20503;-41
2022/04/12 05:09:31;;;;;;;12.93;6.28;;;5.50;81.40;;;;;;6220440;23;20028;-42
2022/04/12 05:12:00;;;;;;;7.85;5.43;;;5.50;81.60;;;;;;6220789;23;20007;-42
2022/04/12 05:14:27;;;;;;;11.53;6.67;;;5.50;81.60;;;;;;6220406;23;20036;-42
2022/04/12 05:16:52;;;;;;;8.60;5.20;;;5.50;81.80;;;;;;6247200;23;20008;-42
2022/04/12 05:19:19;;;;;;;8.00;5.95;;;5.50;81.50;;;;;;6246518;23;20008;-41
2022/04/12 05:21:46;;;;;;;12.88;8.65;;;5.50;81.20;;;;;;6220435;23;20012;-43
2022/04/12 05:24:13;;;;;;;10.68;6.22;;;5.60;81.00;;;;;;6220143;23;20012;-43
2022/04/12 05:26:40;;;;;;;11.00;5.93;;;5.60;80.60;;;;;;6246377;23;20007;-43
2022/04/12 05:29:06;;;;;;;10.48;5.68;;;5.70;80.30;;;;;;6217929;23;20308;-42
2022/04/12 05:31:33;;;;;;;9.40;6.00;;;5.70;79.60;;;;;;6245047;23;20016;-43
2022/04/12 05:34:00;;;;;;;15.40;6.25;;;5.80;80.10;;;;;;6245421;23;20007;-44
2022/04/12 05:36:28;;;;;;;9.60;5.82;;;5.80;79.80;;;;;;6245413;23;20028;-42
2022/04/12 05:38:56;;;;;;;8.90;6.30;;;5.90;79.80;;;;;;6245058;23;20320;-42
2022/04/12 05:41:22;;;;;;;7.20;4.93;;;5.90;79.60;;;;;;6245956;23;20014;-43
2022/04/12 05:43:48;;;;;;;11.32;7.20;;;6.00;79.00;;;;;;6245015;23;20012;-43
2022/04/12 05:46:15;;;;;;;8.50;6.07;;;6.00;78.30;;;;;;6218503;23;20011;-42
2022/04/12 05:48:43;;;;;;;14.25;5.90;;;6.00;78.30;;;;;;6244599;23;20024;-43
2022/04/12 05:51:10;;;;;;;10.63;6.65;;;6.10;78.30;;;;;;6218218;23;20000;-42
2022/04/12 05:53:37;;;;;;;8.32;5.32;;;6.20;78.40;;;;;;6245148;23;20080;-41
2022/04/12 05:56:06;;;;;;;13.32;6.55;;;6.30;77.40;;;;;;6245385;23;20004;-43
2022/04/12 05:58:35;;;;;;;9.20;5.30;;;6.30;77.10;;;;;;6218652;23;20084;-42
2022/04/12 06:01:03;;;;;;;8.32;5.22;;;6.40;76.60;;;;;;6218926;23;20087;-46
2022/04/12 06:03:30;;;;;;;8.23;5.43;;;6.50;76.40;;;;;;6244616;23;20032;-44
2022/04/12 06:05:56;;;;;;;9.25;6.00;;;6.50;75.80;;;;;;6244782;23;20004;-42
2022/04/12 06:08:22;;;;;;;7.68;5.40;;;6.60;76.40;;;;;;6245127;23;20383;-43
2022/04/12 06:10:50;;;;;;;8.07;5.47;;;6.60;76.50;;;;;;6245712;23;20304;-42
2022/04/12 06:13:16;;;;;;;8.07;5.63;;;6.70;76.00;;;;;;6245656;23;20007;-42
2022/04/12 06:15:45;;;;;;;8.75;5.32;;;6.80;76.50;;;;;;6246596;23;20315;-43
2022/04/12 06:18:12;;;;;;;11.23;6.15;;;6.80;76.80;;;;;;6245943;23;20019;-43
2022/04/12 06:20:39;;;;;;;8.38;4.80;;;6.90;76.60;;;;;;6245181;23;20000;-41
2022/04/12 06:23:06;;;;;;;12.25;6.38;;;6.90;76.80;;;;;;6246339;23;20070;-43
2022/04/12 06:25:32;;;;;;;8.07;4.63;;;6.90;76.80;;;;;;6245517;23;20001;-42
2022/04/12 06:27:59;;;;;;;13.70;6.35;;;7.00;76.80;;;;;;6246244;23;20091;-43
2022/04/12 06:30:28;;;;;;;12.30;5.32;;;7.00;76.60;;;;;;6219640;23;20031;-45
2022/04/12 06:32:54;;;;;;;8.57;5.07;;;6.90;75.90;;;;;;6246151;23;20011;-44
2022/04/12 06:35:21;;;;;;;8.20;5.13;;;6.90;76.40;;;;;;6219573;23;20022;-44
2022/04/12 06:37:52;;;;;;;8.23;5.53;;;7.00;76.80;;;;;;6245113;23;20633;-44
2022/04/12 06:40:19;;;;;;;6.93;4.97;;;7.00;76.30;;;;;;6245476;23;20004;-43
2022/04/12 06:42:47;;;;;;;9.32;5.57;;;7.10;76.80;;;;;;6245753;23;20004;-41
2022/04/12 06:45:13;;;;;;;8.80;5.45;;;7.10;76.70;;;;;;6246009;23;20004;-42
2022/04/12 06:47:40;;;;;;;12.00;5.30;;;7.20;75.80;;;;;;6245804;23;20015;-46
2022/04/12 06:50:07;;;;;;;8.55;5.30;;;7.40;75.40;;;;;;6246020;23;20046;-43
2022/04/12 06:52:35;;;;;;;7.30;5.35;;;7.60;75.30;;;;;;6245806;23;20027;-42
2022/04/12 06:55:03;;;;;;;7.60;5.05;;;7.90;74.30;;;;;;6245907;23;20012;-41
2022/04/12 06:57:34;;;;;;;7.07;5.00;;;8.10;73.90;;;;;;6245616;23;20288;-43
2022/04/12 07:00:02;;;;;;;6.95;4.50;;;8.30;72.70;;;;;;6246015;23;20004;-42
2022/04/12 07:02:29;;;;;;;7.20;4.22;;;8.40;71.60;;;;;;6246153;23;20087;-42
2022/04/12 07:04:56;;;;;;;7.25;4.72;;;8.60;71.60;;;;;;6244902;23;20012;-42
2022/04/12 07:07:21;;;;;;;9.27;4.60;;;8.70;70.10;;;;;;6246355;23;20300;-43
2022/04/12 07:09:48;;;;;;;7.65;5.57;;;8.80;70.90;;;;;;6245901;23;20004;-41
2022/04/12 07:12:15;;;;;;;11.52;5.53;;;8.90;67.60;;;;;;6245723;23;20031;-42
2022/04/12 07:14:42;;;;;;;9.10;5.15;;;9.10;68.40;;;;;;6245889;23;20061;-44
2022/04/12 07:17:11;;;;;;;8.30;4.65;;;9.30;69.10;;;;;;6245256;23;20004;-42
2022/04/12 07:19:38;;;;;;;8.68;4.80;;;9.30;68.00;;;;;;6245644;23;20000;-41
2022/04/12 07:22:05;;;;;;;8.15;4.13;;;9.40;67.50;;;;;;6245298;23;20422;-44
2022/04/12 07:24:34;;;;;;;9.43;4.50;;;9.40;66.80;;;;;;6219009;23;20005;-42
2022/04/12 07:27:00;;;;;;;8.27;4.97;;;9.40;65.30;;;;;;6244982;23;20008;-42
2022/04/12 07:29:27;;;;;;;11.18;4.85;;;9.50;66.00;;;;;;6244528;23;20027;-42
2022/04/12 07:31:53;;;;;;;7.72;4.50;;;9.70;66.60;;;;;;6245575;23;20012;-43
2022/04/12 07:34:20;;;;;;;5.72;4.25;;;9.80;66.10;;;;;;6245930;23;20004;-41
2022/04/12 07:36:53;;;;;;;8.63;4.45;;;9.90;64.70;;;;;;6245409;23;20004;-41
2022/04/12 07:39:23;;;;;;;7.90;4.63;;;10.20;65.30;;;;;;6244613;23;20008;-41
2022/04/12 07:41:50;;;;;;;;;;;10.40;64.90;;;;;;6246285;23;20474;-46
2022/04/12 07:44:19;;;;;;;7.93;4.53;;;10.80;63.40;;;;;;6245776;23;19914;-41
2022/04/12 07:46:45;;;;;;;7.35;4.35;;;10.90;61.50;;;;;;6245472;23;20426;-42
2022/04/12 07:49:11;;;;;;;6.80;4.07;;;11.00;63.00;;;;;;6245068;23;20319;-42
2022/04/12 07:51:39;;;;;;;6.00;4.22;;;10.90;62.70;;;;;;6245135;23;20031;-46
2022/04/12 07:54:06;;;;;;;7.47;4.18;;;10.90;61.80;;;;;;6245026;23;20004;-43
2022/04/12 07:56:36;;;;;;;6.20;4.47;;;11.10;63.50;;;;;;6245661;23;20000;-43
2022/04/12 07:59:06;;;;;;;10.23;5.28;;;11.20;62.60;;;;;;6245244;23;20004;-42
2022/04/12 08:01:33;;;;;;;10.00;4.72;;;11.10;60.10;;;;;;6245485;23;20303;-45
2022/04/12 08:04:00;;;;;;;8.30;5.30;;;11.10;62.30;;;;;;6245464;23;20004;-41
2022/04/12 08:06:26;;;;;;;8.80;4.75;;;11.40;61.40;;;;;;6245370;23;20044;-45
2022/04/12 08:08:52;;;;;;;6.00;3.88;;;11.60;60.50;;;;;;6245525;23;20399;-43
2022/04/12 08:11:19;;;;;;;8.80;5.20;;;11.80;61.20;;;;;;6245002;23;20076;-42
2022/04/12 08:13:45;;;;;;;6.78;4.70;;;11.90;60.80;;;;;;6245053;23;20424;-41
2022/04/12 08:16:15;;;;;;;5.55;3.97;;;12.10;59.60;;;;;;6245533;23;20019;-42
2022/04/12 08:18:46;;;;;;;;;;;12.30;58.80;;;;;;6245856;23;20004;-41
2022/04/12 08:21:13;;;;;;;6.93;4.38;;;12.10;58.30;;;;;;6245395;23;19900;-44
2022/04/12 08:23:40;;;;;;;7.78;4.70;;;12.20;59.40;;;;;;6218756;23;20028;-42
2022/04/12 08:26:07;;;;;;;6.10;4.60;;;12.00;58.50;;;;;;6245155;23;19996;-42
2022/04/12 08:28:34;;;;;;;10.15;5.63;;;11.90;59.10;;;;;;6244829;23;19996;-45
2022/04/12 08:31:02;;;;;;;8.85;5.35;;;11.90;59.90;;;;;;6245490;23;20304;-44
2022/04/12 08:33:28;;;;;;;6.95;3.92;;;11.80;60.10;;;;;;6244747;23;20274;-41
2022/04/12 08:35:55;;;;;;;5.70;3.97;;;11.70;60.50;;;;;;6245453;23;20075;-42
2022/04/12 08:38:22;;;;;;;7.18;4.50;;;11.90;60.40;;;;;;6244903;23;20008;-44
2022/04/12 08:40:53;;;;;;;7.53;4.63;;;12.10;60.20;;;;;;6218406;23;20004;-43
2022/04/12 08:43:21;;;;;;;7.00;4.28;;;11.90;60.00;;;;;;6245108;23;20000;-43
2022/04/12 08:45:49;;;;;;;7.65;5.18;;;11.90;60.20;;;;;;6218829;23;20070;-42
2022/04/12 08:48:16;;;;;;;6.57;4.72;;;11.90;60.60;;;;;;6243918;23;20016;-42
2022/04/12 08:50:44;;;;;;;7.10;5.13;;;11.90;59.50;;;;;;6245474;23;20335;-42
2022/04/12 08:53:14;;;;;;;6.93;4.60;;;11.90;59.10;;;;;;6245163;23;20345;-41
2022/04/12 08:55:41;;;;;;;11.10;5.05;;;12.20;59.90;;;;;;6218911;23;20076;-42
2022/04/12 08:58:08;;;;;;;9.98;5.40;;;12.90;61.00;;;;;;6244834;23;20004;-42
2022/04/12 09:00:35;;;;;;;8.15;4.75;;;13.60;56.50;;;;;;6246476;23;19996;-41
2022/04/12 09:03:01;;;;;;;6.13;4.97;;;14.10;54.20;;;;;;6247107;23;20383;-43
2022/04/12 09:05:28;;;;;;;6.90;3.90;;;14.60;52.20;;;;;;6195316;23;20095;-43
2022/04/12 09:07:56;;;;;;;8.80;4.65;;;15.00;50.90;;;;;;6247309;23;20298;-42
2022/04/12 09:10:36;;;;;;;7.63;4.65;;;15.10;51.20;;;;;;6220523;23;20035;-42
2022/04/12 09:13:15;;;;;;;6.60;4.70;;;15.20;51.90;;;;;;6246906;23;20004;-44
2022/04/12 09:15:46;;;;;;;9.07;4.60;;;15.30;51.00;;;;;;6246985;23;20000;-46
2022/04/12 09:18:15;;;;;;;6.20;4.35;;;15.20;48.90;;;;;;6245522;23;20043;-42
2022/04/12 09:20:42;;;;;;;7.47;4.32;;;15.30;50.50;;;;;;6246490;23;20004;-42
2022/04/12 09:23:15;;;;;;;7.47;4.85;;;15.60;49.70;;;;;;6246768;23;20007;-43
2022/04/12 09:26:02;;;;;;;8.00;4.78;;;15.70;49.50;;;;;;6246817;23;20117;-44
2022/04/12 09:28:42;;;;;;;6.32;4.28;;;16.10;49.80;;;;;;6246137;23;20008;-42
2022/04/12 09:31:17;;;;;;;8.88;4.50;;;16.10;50.50;;;;;;6246402;23;20023;-42
2022/04/12 09:33:47;;;;;;;8.00;4.85;;;16.20;47.20;;;;;;6246701;23;20299;-43
2022/04/12 09:36:14;;;;;;;11.52;4.90;;;16.40;47.40;;;;;;6246406;23;20015;-44
2022/04/12 09:38:44;;;;;;;7.10;4.07;;;16.40;47.20;;;;;;6246138;23;20012;-45
2022/04/12 09:41:15;;;;;;;8.57;4.78;;;16.50;48.50;;;;;;6246642;23;20005;-43
2022/04/12 09:44:11;;;;;;;9.55;5.55;;;16.50;46.40;;;;;;6246403;23;20004;-42
2022/04/12 09:46:39;;;;;;;7.47;4.50;;;16.50;45.50;;;;;;6219790;23;20008;-44
2022/04/12 09:49:07;;;;;;;6.97;4.57;;;16.70;47.50;;;;;;6246377;23;20008;-42
2022/04/12 09:51:38;;;;;;;6.20;4.45;;;16.80;48.90;;;;;;6220031;23;20012;-42
2022/04/12 09:54:08;;;;;;;6.88;4.80;;;16.80;47.00;;;;;;6218323;23;20087;-44
2022/04/12 09:56:35;;;;;;;;;;;17.00;47.40;;;;;;6247407;23;20003;-43
2022/04/12 09:59:07;;;;;;;7.20;4.55;;;17.10;46.90;;;;;;6245984;23;20178;-42
2022/04/12 10:01:39;;;;;;;8.20;5.22;;;17.00;45.80;;;;;;6219778;23;20453;-42
2022/04/12 10:04:11;;;;;;;6.40;5.20;;;16.80;45.00;;;;;;6245551;23;20015;-42
2022/04/12 10:06:42;;;;;;;7.40;5.55;;;16.70;45.80;;;;;;6219730;23;20007;-42
2022/04/12 10:09:14;;;;;;;8.98;4.95;;;17.00;46.00;;;;;;6245641;23;20007;-43
2022/04/12 10:11:42;;;;;;;9.18;4.90;;;17.10;47.70;;;;;;6219102;23;20000;-45
2022/04/12 10:14:10;;;;;;;6.38;4.90;;;17.30;46.00;;;;;;6246161;23;20000;-43
2022/04/12 10:16:39;;;;;;;6.05;4.43;;;17.60;44.60;;;;;;6246316;23;20007;-45
2022/04/12 10:19:07;;;;;;;7.15;5.07;;;17.30;45.70;;;;;;6245724;23;20008;-43
2022/04/12 10:21:35;;;;;;;7.47;5.32;;;17.20;46.60;;;;;;6246143;23;20004;-43
2022/04/12 10:24:03;;;;;;;6.53;4.82;;;17.20;46.00;;;;;;6245947;23;20000;-42
2022/04/12 10:26:29;;;;;;;9.27;5.00;;;17.30;44.90;;;;;;6246508;23;20004;-43
2022/04/12 10:29:04;;;;;;;6.80;5.15;;;17.50;45.60;;;;;;6245403;23;20019;-45
2022/04/12 10:31:34;;;;;;;8.70;5.72;;;17.60;46.70;;;;;;6245596;23;20012;-43
2022/04/12 10:34:05;;;;;;;8.20;5.43;;;17.60;44.90;;;;;;6245795;23;20000;-44
2022/04/12 10:37:04;;;;;;;7.88;5.95;;;17.40;44.90;;;;;;6246625;23;20079;-45
2022/04/12 10:39:48;;;;;;;8.47;6.13;;;17.40;46.00;;;;;;6245812;23;20004;-43
2022/04/12 10:42:28;;;;;;;6.57;5.30;;;17.30;43.00;;;;;;6246363;23;20242;-45
2022/04/12 10:44:56;;;;;;;8.00;5.22;;;17.40;47.30;;;;;;6245883;23;20000;-42
2022/04/12 10:47:42;;;;;;;6.93;5.13;;;17.50;45.80;;;;;;6246108;23;20007;-42
2022/04/12 10:50:29;;;;;;;11.98;5.70;;;17.70;45.50;;;;;;6245851;23;20067;-42
2022/04/12 10:52:56;;;;;;;8.82;6.07;;;18.00;44.20;;;;;;6245274;23;20082;-43
2022/04/12 10:55:28;;;;;;;8.23;5.95;;;18.00;44.50;;;;;;6246391;23;20007;-42
2022/04/12 10:58:09;;;;;;;10.32;5.43;;;18.00;42.90;;;;;;6218787;23;20012;-43
2022/04/12 11:00:36;;;;;;;13.55;6.00;;;17.60;45.20;;;;;;6246236;23;20004;-42
2022/04/12 11:03:03;;;;;;;10.00;6.55;;;17.40;44.60;;;;;;6245500;23;20403;-43
2022/04/12 11:05:52;;;;;;;7.88;5.90;;;17.20;44.90;;;;;;6246091;23;20287;-43
2022/04/12 11:08:18;;;;;;;8.38;5.97;;;16.90;43.70;;;;;;6245912;23;20000;-46
2022/04/12 11:10:54;;;;;;;9.38;6.15;;;16.80;45.20;;;;;;6246445;23;20004;-46
2022/04/12 11:13:22;;;;;;;10.90;6.47;;;16.60;44.80;;;;;;6245911;23;20419;-44
2022/04/12 11:16:19;;;;;;;7.40;5.93;;;16.60;45.70;;;;;;6246202;23;20010;-42
2022/04/12 11:18:59;;;;;;;9.90;6.18;;;16.50;45.20;;;;;;6242446;23;20015;-42
2022/04/12 11:22:04;;;;;;;9.00;5.85;;;16.70;45.80;;;;;;6245481;23;20406;-42
2022/04/12 11:24:32;;;;;;;7.55;5.60;;;17.10;43.40;;;;;;6217771;23;20049;-44
2022/04/12 11:27:04;;;;;;;9.00;5.82;;;17.30;43.80;;;;;;6246014;23;20020;-43
2022/04/12 11:29:31;;;;;;;9.82;5.63;;;17.50;44.50;;;;;;6245289;23;20651;-43
2022/04/12 11:31:58;;;;;;;7.18;5.88;;;17.70;42.80;;;;;;6245791;23;20016;-42
2022/04/12 11:34:27;;;;;;;7.78;6.00;;;17.50;42.50;;;;;;6245610;23;20019;-43
2022/04/12 11:36:57;;;;;;;8.40;6.63;;;17.30;43.60;;;;;;6245087;23;20081;-46
2022/04/12 11:39:37;;;;;;;10.05;6.45;;;17.10;41.60;;;;;;6218069;23;20386;-45
2022/04/12 11:42:06;;;;;;;8.13;5.80;;;16.90;41.90;;;;;;6245951;23;20000;-42
2022/04/12 11:44:33;;;;;;;8.48;6.03;;;17.00;42.80;;;;;;6245475;23;20000;-48
2022/04/12 11:47:09;;;;;;;10.30;6.38;;;17.10;42.50;;;;;;6244986;23;20030;-45
2022/04/12 11:49:54;;;;;;;8.65;5.95;;;17.20;42.70;;;;;;6245747;23;20008;-45
2022/04/12 11:52:21;;;;;;;8.32;6.13;;;17.80;45.70;;;;;;6245380;23;20407;-43
2022/04/12 11:54:48;;;;;;;8.48;6.07;;;18.30;44.40;;;;;;6244167;23;20008;-42
2022/04/12 11:57:33;;;;;;;8.30;6.07;;;18.30;42.10;;;;;;6245446;23;20004;-45
2022/04/12 12:00:03;;;;;;;8.75;5.85;;;18.40;41.90;;;;;;6245829;23;20078;-45
2022/04/12 12:02:37;;;;;;;9.73;6.65;;;18.40;42.00;;;;;;6244538;23;20035;-42
2022/04/12 12:05:11;;;;;;;7.50;5.95;;;18.40;40.10;;;;;;6244793;23;20014;-43
2022/04/12 12:07:37;;;;;;;10.52;6.20;;;18.30;40.40;;;;;;6217859;23;19996;-44
2022/04/12 12:10:05;;;;;;;9.73;6.45;;;18.30;41.80;;;;;;6245324;23;20123;-48
2022/04/12 12:12:51;;;;;;;10.27;6.60;;;18.40;40.70;;;;;;6245306;23;20103;-48
2022/04/12 12:15:28;;;;;;;9.70;6.20;;;18.30;40.50;;;;;;6245438;23;20004;-45
2022/04/12 12:18:15;;;;;;;9.65;6.22;;;18.10;43.70;;;;;;6245368;23;20403;-47
2022/04/12 12:20:42;;;;;;;7.85;5.82;;;18.20;41.50;;;;;;6244503;23;20036;-45
2022/04/12 12:23:10;;;;;;;7.55;5.63;;;18.30;42.70;;;;;;6245265;23;20328;-44
2022/04/12 12:25:51;;;;;;;7.85;6.60;;;18.40;43.10;;;;;;6245385;23;20008;-43
2022/04/12 12:28:24;;;;;;;8.95;5.57;;;18.30;41.10;;;;;;6245032;23;20007;-50
2022/04/12 12:31:02;;;;;;;8.05;6.50;;;18.30;41.70;;;;;;6245082;23;20012;-43
2022/04/12 12:33:47;;;;;;;8.65;6.35;;;18.30;42.60;;;;;;6245074;23;20099;-45
2022/04/12 12:36:26;;;;;;;8.57;6.43;;;17.80;41.70;;;;;;6247278;23;20010;-46
2022/04/12 12:38:58;;;;;;;8.40;5.57;;;17.30;42.30;;;;;;6247027;23;20000;-45
2022/04/12 12:41:42;;;;;;;7.97;6.00;;;17.30;42.90;;;;;;6220681;23;20071;-45
2022/04/12 12:44:09;;;;;;;7.80;6.07;;;17.50;43.40;;;;;;6245909;23;20410;-47
2022/04/12 12:46:38;;;;;;;7.95;5.65;;;17.60;43.80;;;;;;6247485;23;20000;-43
2022/04/12 12:49:22;;;;;;;9.75;5.47;;;17.60;44.30;;;;;;6219584;23;20028;-42
2022/04/12 12:51:50;;;;;;;8.30;6.30;;;17.80;45.90;;;;;;6247005;23;19996;-44
2022/04/12 12:54:19;;;;;;;8.23;6.00;;;17.90;43.60;;;;;;6247098;23;20096;-46
2022/04/12 12:56:47;;;;;;;7.53;5.32;;;18.00;42.50;;;;;;6247090;23;20429;-44
2022/04/12 12:59:26;;;;;;;8.32;6.03;;;18.10;43.70;;;;;;6220329;23;20015;-42
2022/04/12 13:01:56;;;;;;;8.43;5.88;;;18.10;42.90;;;;;;6246863;23;20004;-46
2022/04/12 13:04:31;;;;;;;6.80;5.15;;;18.10;42.60;;;;;;6246712;23;20015;-44